createdAt,value
2022-12-23T00:02:01.925Z,5.07
2022-12-23T00:04:51.312Z,5.08
2022-12-23T00:07:41.094Z,5.07
2022-12-23T00:10:32.078Z,5.07
2022-12-23T00:13:38.893Z,5.11
2022-12-23T00:16:28.529Z,5.17
2022-12-23T00:19:17.882Z,5.21
2022-12-23T00:22:07.520Z,5.25
2022-12-23T00:24:56.851Z,5.23
2022-12-23T00:28:01.561Z,5.28
2022-12-23T00:30:53.541Z,5.22
2022-12-23T00:33:49.730Z,5.26
2022-12-23T00:36:40.968Z,5.28
2022-12-23T00:39:52.093Z,5.24
2022-12-23T00:42:55.871Z,5.23
2022-12-23T00:45:46.640Z,5.19
2022-12-23T00:48:58.862Z,5.18
2022-12-23T00:51:48.295Z,5.29
2022-12-23T00:54:38.319Z,5.28
2022-12-23T00:57:28.092Z,5.31
2022-12-23T01:00:18.772Z,5.33
2022-12-23T01:03:32.150Z,5.26
2022-12-23T01:06:21.294Z,5.23
2022-12-23T01:09:10.650Z,5.19
2022-12-23T01:12:00.327Z,5.13
2022-12-23T01:14:50.156Z,5.14
2022-12-23T01:17:39.411Z,5.12
2022-12-23T01:20:30.126Z,5.12
2022-12-23T01:23:19.407Z,5.05
2022-12-23T01:26:10.221Z,5.13
2022-12-23T01:29:00.333Z,5.15
2022-12-23T01:31:50.049Z,5.16
2022-12-23T01:34:39.363Z,5.19
2022-12-23T01:37:29.967Z,5.18
2022-12-23T01:40:19.444Z,5.17
2022-12-23T01:43:11.725Z,5.32
2022-12-23T01:46:01.032Z,5.37
2022-12-23T01:48:54.159Z,5.42
2022-12-23T01:51:44.083Z,5.47
2022-12-23T01:54:35.632Z,5.45
2022-12-23T01:57:25.963Z,5.56
2022-12-23T02:00:34.055Z,5.52
2022-12-23T02:03:40.581Z,5.55
2022-12-23T02:06:52.551Z,5.70
2022-12-23T02:09:43.213Z,5.72
2022-12-23T02:12:45.639Z,5.75
2022-12-23T02:16:03.761Z,5.85
2022-12-23T02:19:11.697Z,5.84
2022-12-23T02:22:24.735Z,5.85
2022-12-23T02:26:08.046Z,5.97
2022-12-23T02:29:27.724Z,5.96
2022-12-23T02:32:26.258Z,5.99
2022-12-23T02:35:26.262Z,6.05
2022-12-23T02:38:23.758Z,6.01
2022-12-23T02:41:22.009Z,6.09
2022-12-23T02:44:24.387Z,6.06
2022-12-23T02:47:21.116Z,6.02
2022-12-23T02:50:16.567Z,6.00
2022-12-23T02:53:15.339Z,6.03
2022-12-23T02:56:07.458Z,5.98
2022-12-23T02:59:06.681Z,5.96
2022-12-23T03:01:57.609Z,6.01
2022-12-23T03:04:48.509Z,6.01
2022-12-23T03:07:43.970Z,6.03
2022-12-23T03:10:46.133Z,6.13
2022-12-23T03:14:11.189Z,6.17
2022-12-23T03:17:15.056Z,6.20
2022-12-23T03:20:16.337Z,6.29
2022-12-23T03:23:18.929Z,6.31
2022-12-23T03:26:17.679Z,6.38
2022-12-23T03:29:14.805Z,6.41
2022-12-23T03:32:06.509Z,6.47
2022-12-23T03:34:58.280Z,6.53
2022-12-23T03:37:53.403Z,6.55
2022-12-23T03:40:46.990Z,6.61
2022-12-23T03:43:46.732Z,6.64
2022-12-23T03:46:46.175Z,6.61
2022-12-23T03:49:41.283Z,6.69
2022-12-23T03:52:37.931Z,6.73
2022-12-23T03:55:34.660Z,6.76
2022-12-23T03:58:35.195Z,6.79
2022-12-23T04:01:37.942Z,6.82
2022-12-23T04:04:31.839Z,6.87
2022-12-23T04:07:30.379Z,6.96
2022-12-23T04:10:21.304Z,7.05
2022-12-23T04:13:12.024Z,7.15
2022-12-23T04:16:02.468Z,7.13
2022-12-23T04:18:51.829Z,7.33
2022-12-23T04:21:41.173Z,7.38
2022-12-23T04:24:30.752Z,7.42
2022-12-23T04:27:20.047Z,7.34
2022-12-23T04:30:14.927Z,7.47
2022-12-23T04:33:04.351Z,7.50
2022-12-23T04:35:53.718Z,7.50
2022-12-23T04:38:43.083Z,7.53
2022-12-23T04:41:32.413Z,7.63
2022-12-23T04:44:21.703Z,7.60
2022-12-23T04:47:12.339Z,7.68
2022-12-23T04:50:01.593Z,7.69
2022-12-23T04:52:50.986Z,7.74
2022-12-23T04:55:40.381Z,7.76
2022-12-23T04:58:29.658Z,7.77
2022-12-23T05:01:19.005Z,7.76
2022-12-23T05:04:10.112Z,7.90
2022-12-23T05:06:59.575Z,7.96
2022-12-23T05:09:48.836Z,8.07
2022-12-23T05:12:38.103Z,8.15
2022-12-23T05:15:27.480Z,8.25
2022-12-23T05:18:17.143Z,8.30
2022-12-23T05:21:08.025Z,8.33
2022-12-23T05:23:57.759Z,8.41
2022-12-23T05:26:52.915Z,8.38
2022-12-23T05:29:47.056Z,8.57
2022-12-23T05:32:36.314Z,8.62
2022-12-23T05:35:27.737Z,8.64
2022-12-23T05:38:18.513Z,8.76
2022-12-23T05:41:08.417Z,8.81
2022-12-23T05:43:57.755Z,8.97
2022-12-23T05:46:47.081Z,9.02
2022-12-23T05:49:36.354Z,9.06
2022-12-23T05:52:25.746Z,9.11
2022-12-23T05:55:16.594Z,9.14
2022-12-23T05:58:06.009Z,8.90
2022-12-23T06:00:55.374Z,9.24
2022-12-23T06:03:44.814Z,9.14
2022-12-23T06:06:34.154Z,9.26
2022-12-23T06:09:23.449Z,9.38
2022-12-23T06:12:14.189Z,9.30
2022-12-23T06:15:03.710Z,9.37
2022-12-23T06:17:53.431Z,9.33
2022-12-23T06:20:42.773Z,9.31
2022-12-23T06:23:32.030Z,9.42
2022-12-23T06:26:21.423Z,9.41
2022-12-23T06:29:12.686Z,9.24
2022-12-23T06:32:02.118Z,9.46
2022-12-23T06:34:53.414Z,9.37
2022-12-23T06:37:42.741Z,9.46
2022-12-23T06:40:32.027Z,9.45
2022-12-23T06:43:21.431Z,9.42
2022-12-23T06:46:12.523Z,9.57
2022-12-23T06:49:04.919Z,9.58
2022-12-23T06:51:57.089Z,9.59
2022-12-23T06:54:46.430Z,9.59
2022-12-23T06:57:35.875Z,9.53
2022-12-23T07:00:25.442Z,9.54
2022-12-23T07:03:16.211Z,9.56
2022-12-23T07:06:06.103Z,9.61
2022-12-23T07:08:55.411Z,9.57
2022-12-23T07:11:44.687Z,9.64
2022-12-23T07:14:34.050Z,9.59
2022-12-23T07:17:23.480Z,9.58
2022-12-23T07:20:15.246Z,9.58
2022-12-23T07:23:04.593Z,9.60
2022-12-23T07:25:53.988Z,9.60
2022-12-23T07:28:46.855Z,9.65
2022-12-23T07:31:40.774Z,9.63
2022-12-23T07:34:30.671Z,9.65
2022-12-23T07:37:21.957Z,9.49
2022-12-23T07:40:13.339Z,9.62
2022-12-23T07:43:02.948Z,9.62
2022-12-23T07:45:59.241Z,9.61
2022-12-23T07:48:49.519Z,9.58
2022-12-23T07:51:38.848Z,9.59
2022-12-23T07:54:29.513Z,9.52
2022-12-23T07:57:18.814Z,9.37
2022-12-23T08:00:11.390Z,9.36
2022-12-23T08:03:03.481Z,9.47
2022-12-23T08:06:02.113Z,9.52
2022-12-23T08:08:51.476Z,9.41
2022-12-23T08:11:42.250Z,9.46
2022-12-23T08:14:31.538Z,9.38
2022-12-23T08:17:21.307Z,9.42
2022-12-23T08:20:11.862Z,9.36
2022-12-23T08:23:01.143Z,9.42
2022-12-23T08:25:50.422Z,9.34
2022-12-23T08:28:42.800Z,9.42
2022-12-23T08:31:32.935Z,9.43
2022-12-23T08:34:22.269Z,9.43
2022-12-23T08:37:11.596Z,9.42
2022-12-23T08:40:00.932Z,9.37
2022-12-23T08:42:50.187Z,9.40
2022-12-23T08:45:41.190Z,9.37
2022-12-23T08:48:30.656Z,9.39
2022-12-23T08:51:25.272Z,9.39
2022-12-23T08:54:14.601Z,9.35
2022-12-23T08:57:03.907Z,9.29
2022-12-23T08:59:53.103Z,9.39
2022-12-23T09:02:44.132Z,9.41
2022-12-23T09:05:34.740Z,9.34
2022-12-23T09:08:24.051Z,9.38
2022-12-23T09:11:16.593Z,9.44
2022-12-23T09:14:07.404Z,9.40
2022-12-23T09:16:56.743Z,9.48
2022-12-23T09:19:52.657Z,9.46
2022-12-23T09:22:42.564Z,9.50
2022-12-23T09:25:31.955Z,9.45
2022-12-23T09:28:21.578Z,9.45
2022-12-23T09:31:13.511Z,9.38
2022-12-23T09:34:02.981Z,9.48
2022-12-23T09:36:55.606Z,9.53
2022-12-23T09:39:45.223Z,9.56
2022-12-23T09:42:54.377Z,9.54
2022-12-23T09:46:00.298Z,9.48
2022-12-23T09:49:04.996Z,9.51
2022-12-23T09:52:01.646Z,9.48
2022-12-23T09:54:55.312Z,9.51
2022-12-23T09:57:54.635Z,9.55
2022-12-23T10:00:55.471Z,9.60
2022-12-23T10:04:36.644Z,9.80
2022-12-23T10:07:38.373Z,9.82
2022-12-23T10:10:36.396Z,9.72
2022-12-23T10:13:29.858Z,9.77
2022-12-23T10:16:21.690Z,9.75
2022-12-23T10:19:19.874Z,9.85
2022-12-23T10:22:17.284Z,9.86
2022-12-23T10:25:16.390Z,9.90
2022-12-23T10:28:06.333Z,9.81
2022-12-23T10:34:23.099Z,9.88
2022-12-23T10:37:21.574Z,9.96
2022-12-23T10:40:22.013Z,9.92
2022-12-23T10:43:24.316Z,9.97
2022-12-23T10:46:23.593Z,9.99
2022-12-23T10:49:24.446Z,9.94
2022-12-23T10:52:18.880Z,10.02
2022-12-23T10:55:20.025Z,10.13
2022-12-23T10:58:15.814Z,10.17
2022-12-23T11:01:15.223Z,10.22
2022-12-23T11:04:17.618Z,10.24
2022-12-23T11:07:42.952Z,10.18
2022-12-23T11:10:28.765Z,10.23
2022-12-23T11:13:40.032Z,10.28
2022-12-23T11:16:30.304Z,10.23
2022-12-23T11:19:19.647Z,10.26
2022-12-23T11:22:24.878Z,10.30
2022-12-23T11:25:36.735Z,10.27
2022-12-23T11:28:26.666Z,10.22
2022-12-23T11:31:17.417Z,10.41
2022-12-23T11:34:15.986Z,10.40
2022-12-23T11:37:07.691Z,10.46
2022-12-23T11:39:57.342Z,10.47
2022-12-23T11:42:55.047Z,10.50
2022-12-23T11:45:44.800Z,10.44
2022-12-23T11:48:34.965Z,10.53
2022-12-23T11:51:28.029Z,10.49
2022-12-23T11:54:20.306Z,10.55
2022-12-23T11:57:18.367Z,10.52
2022-12-23T12:00:21.793Z,10.57
2022-12-23T12:03:18.132Z,10.62
2022-12-23T12:06:09.583Z,10.60
2022-12-23T12:09:03.152Z,10.63
2022-12-23T12:11:55.907Z,10.70
2022-12-23T12:14:48.188Z,10.76
2022-12-23T12:17:45.903Z,10.79
2022-12-23T12:20:40.544Z,10.83
2022-12-23T12:23:41.608Z,10.85
2022-12-23T12:26:34.816Z,10.86
2022-12-23T12:29:31.534Z,10.90
2022-12-23T12:32:29.172Z,10.98
2022-12-23T12:35:30.470Z,11.01
2022-12-23T12:38:27.708Z,11.04
2022-12-23T12:41:22.516Z,11.09
2022-12-23T12:44:31.660Z,11.05
2022-12-23T12:47:52.751Z,11.12
2022-12-23T12:50:45.745Z,11.17
2022-12-23T12:53:38.304Z,11.20
2022-12-23T12:56:34.940Z,11.22
2022-12-23T12:59:28.565Z,11.24
2022-12-23T13:02:53.822Z,11.44
2022-12-23T13:06:20.421Z,11.55
2022-12-23T13:09:16.758Z,11.73
2022-12-23T13:12:19.150Z,11.73
2022-12-23T13:15:21.673Z,11.66
2022-12-23T13:18:29.320Z,11.72
2022-12-23T13:21:25.494Z,11.72
2022-12-23T13:24:25.720Z,11.69
2022-12-23T13:27:21.267Z,11.54
2022-12-23T13:30:14.347Z,11.57
2022-12-23T13:33:24.630Z,11.46
2022-12-23T13:36:37.974Z,11.64
2022-12-23T13:39:44.949Z,11.59
2022-12-23T13:42:43.652Z,11.55
2022-12-23T13:45:37.682Z,11.65
2022-12-23T13:48:40.560Z,11.66
2022-12-23T13:51:40.615Z,11.84
2022-12-23T13:54:47.905Z,11.83
2022-12-23T13:57:53.650Z,11.97
2022-12-23T14:00:43.758Z,11.97
2022-12-23T14:03:36.681Z,12.09
2022-12-23T14:06:46.063Z,11.96
2022-12-23T14:09:39.304Z,11.87
2022-12-23T14:12:31.017Z,11.86
2022-12-23T14:15:45.660Z,11.97
2022-12-23T14:19:07.539Z,12.02
2022-12-23T14:22:14.969Z,12.17
2022-12-23T14:25:33.071Z,12.21
2022-12-23T14:28:40.982Z,12.26
2022-12-23T14:31:36.741Z,12.36
2022-12-23T14:34:32.848Z,12.45
2022-12-23T14:37:39.074Z,12.42
2022-12-23T14:41:19.177Z,12.47
2022-12-23T14:44:22.209Z,12.45
2022-12-23T14:47:36.069Z,12.44
2022-12-23T14:50:42.648Z,12.42
2022-12-23T14:53:34.336Z,12.43
2022-12-23T14:56:29.947Z,12.27
2022-12-23T14:59:28.585Z,12.21
2022-12-23T15:02:24.347Z,12.08
2022-12-23T15:05:14.757Z,11.94
2022-12-23T15:08:05.207Z,11.85
2022-12-23T15:10:57.071Z,11.77
2022-12-23T15:13:46.898Z,11.72
2022-12-23T15:16:40.378Z,11.50
2022-12-23T15:19:30.384Z,11.57
2022-12-23T15:22:25.317Z,11.53
2022-12-23T15:25:23.770Z,11.48
2022-12-23T15:28:21.820Z,11.37
2022-12-23T15:31:26.356Z,11.40
2022-12-23T15:34:24.460Z,11.38
2022-12-23T15:37:14.525Z,11.29
2022-12-23T15:40:11.872Z,11.31
2022-12-23T15:43:04.046Z,11.26
2022-12-23T15:45:55.049Z,11.30
2022-12-23T15:48:45.002Z,11.23
2022-12-23T15:54:55.764Z,11.14
2022-12-23T15:57:50.634Z,11.09
2022-12-23T16:00:43.166Z,11.11
2022-12-23T16:03:38.526Z,11.06
2022-12-23T16:06:32.124Z,11.14
2022-12-23T16:09:34.537Z,11.07
2022-12-23T16:12:26.524Z,11.03
2022-12-23T16:15:27.078Z,11.12
2022-12-23T16:18:28.661Z,11.09
2022-12-23T16:21:19.443Z,10.94
2022-12-23T16:24:10.790Z,11.00
2022-12-23T16:27:00.202Z,11.02
2022-12-23T16:29:50.433Z,10.93
2022-12-23T16:32:54.656Z,10.86
2022-12-23T16:35:45.302Z,10.90
2022-12-23T16:38:36.053Z,10.91
2022-12-23T16:41:25.516Z,10.93
2022-12-23T16:44:14.918Z,10.85
2022-12-23T16:47:09.786Z,10.85
2022-12-23T16:49:59.178Z,10.79
2022-12-23T16:52:48.594Z,10.82
2022-12-23T16:55:41.720Z,10.76
2022-12-23T16:58:35.619Z,10.79
2022-12-23T17:01:29.010Z,10.80
2022-12-23T17:04:18.780Z,10.74
2022-12-23T17:07:12.895Z,10.76
2022-12-23T17:10:02.224Z,10.71
2022-12-23T17:12:53.160Z,10.69
2022-12-23T17:15:42.583Z,10.65
2022-12-23T17:18:31.964Z,10.60
2022-12-23T17:21:24.682Z,10.64
2022-12-23T17:24:22.121Z,10.64
2022-12-23T17:27:17.084Z,10.60
2022-12-23T17:30:14.756Z,10.58
2022-12-23T17:33:04.083Z,10.51
2022-12-23T17:35:53.879Z,10.50
2022-12-23T17:38:43.447Z,10.57
2022-12-23T17:41:34.874Z,10.53
2022-12-23T17:44:24.228Z,10.44
2022-12-23T17:47:18.456Z,10.49
2022-12-23T17:50:10.183Z,10.54
2022-12-23T17:52:59.771Z,10.55
2022-12-23T17:55:49.085Z,10.53
2022-12-23T17:58:38.631Z,10.57
2022-12-23T18:01:31.080Z,10.56
2022-12-23T18:04:21.930Z,10.63
2022-12-23T18:07:13.557Z,10.64
2022-12-23T18:10:02.930Z,10.63
2022-12-23T18:12:56.741Z,10.57
2022-12-23T18:15:46.986Z,10.56
2022-12-23T18:18:45.822Z,10.57
2022-12-23T18:21:37.671Z,10.52
2022-12-23T18:24:27.349Z,10.46
2022-12-23T18:27:18.167Z,10.44
2022-12-23T18:30:09.597Z,10.46
2022-12-23T18:32:58.955Z,10.41
2022-12-23T18:35:50.185Z,10.36
2022-12-23T18:38:40.957Z,10.39
2022-12-23T18:41:30.544Z,10.36
2022-12-23T18:44:21.480Z,10.33
2022-12-23T18:47:11.655Z,10.35
2022-12-23T18:50:00.961Z,10.36
2022-12-23T18:52:50.548Z,10.36
2022-12-23T18:55:41.307Z,10.30
2022-12-23T18:58:30.723Z,10.23
2022-12-23T19:01:20.449Z,10.26
2022-12-23T19:04:09.929Z,10.25
2022-12-23T19:06:59.502Z,10.24
2022-12-23T19:09:48.884Z,10.18
2022-12-23T19:12:39.726Z,10.29
2022-12-23T19:15:29.440Z,10.36
2022-12-23T19:18:21.829Z,10.37
2022-12-23T19:21:11.204Z,10.36
2022-12-23T19:24:00.706Z,10.43
2022-12-23T19:26:50.039Z,10.50
2022-12-23T19:29:40.886Z,10.59
2022-12-23T19:32:30.228Z,10.73
2022-12-23T19:35:19.655Z,10.86
2022-12-23T19:38:09.211Z,10.85
2022-12-23T19:40:59.288Z,10.89
2022-12-23T19:43:48.987Z,10.88
2022-12-23T19:46:39.857Z,10.89
2022-12-23T19:49:29.313Z,11.01
2022-12-23T19:52:18.713Z,10.96
2022-12-23T19:55:10.286Z,11.00
2022-12-23T19:57:59.576Z,11.00
2022-12-23T20:00:49.003Z,11.12
2022-12-23T20:03:40.325Z,11.15
2022-12-23T20:06:33.784Z,11.10
2022-12-23T20:09:23.210Z,11.18
2022-12-23T20:12:12.742Z,11.21
2022-12-23T20:15:02.448Z,11.21
2022-12-23T20:17:51.962Z,11.21
2022-12-23T20:20:45.598Z,11.16
2022-12-23T20:23:35.482Z,11.13
2022-12-23T20:26:24.870Z,11.10
2022-12-23T20:29:14.391Z,11.05
2022-12-23T20:32:03.730Z,10.97
2022-12-23T20:34:53.044Z,10.93
2022-12-23T20:37:43.798Z,10.89
2022-12-23T20:40:33.273Z,10.89
2022-12-23T20:43:22.568Z,10.92
2022-12-23T20:46:15.552Z,10.91
2022-12-23T20:49:05.160Z,10.89
2022-12-23T20:51:54.499Z,10.89
2022-12-23T20:54:45.317Z,10.84
2022-12-23T20:57:35.953Z,10.85
2022-12-23T21:00:25.595Z,10.88
2022-12-23T21:03:15.277Z,10.84
2022-12-23T21:06:04.734Z,10.84
2022-12-23T21:08:55.871Z,10.90
2022-12-23T21:11:48.594Z,10.84
2022-12-23T21:14:37.957Z,10.84
2022-12-23T21:17:27.309Z,10.77
2022-12-23T21:20:17.287Z,10.88
2022-12-23T21:23:06.570Z,10.77
2022-12-23T21:26:14.947Z,10.83
2022-12-23T21:29:08.314Z,10.74
2022-12-23T21:31:58.273Z,10.82
2022-12-23T21:34:47.954Z,10.80
2022-12-23T21:37:37.361Z,10.82
2022-12-23T21:40:26.673Z,10.80
2022-12-23T21:43:16.011Z,10.83
2022-12-23T21:46:09.673Z,10.77
2022-12-23T21:49:00.244Z,10.73
2022-12-23T21:51:49.695Z,10.75
2022-12-23T21:54:39.126Z,10.76
2022-12-23T21:57:28.469Z,10.67
2022-12-23T22:00:18.384Z,10.69
2022-12-23T22:03:09.093Z,10.66
2022-12-23T22:06:10.230Z,10.67
2022-12-23T22:09:00.894Z,10.62
2022-12-23T22:11:50.443Z,10.66
2022-12-23T22:14:39.884Z,10.56
2022-12-23T22:17:29.372Z,10.62
2022-12-23T22:20:20.203Z,10.59
2022-12-23T22:23:09.533Z,10.64
2022-12-23T22:25:58.838Z,10.64
2022-12-23T22:28:48.430Z,10.52
2022-12-23T22:31:41.426Z,10.46
2022-12-23T22:34:30.745Z,10.52
2022-12-23T22:37:21.389Z,10.48
2022-12-23T22:40:12.309Z,10.45
2022-12-23T22:43:01.688Z,10.43
2022-12-23T22:45:58.174Z,10.39
2022-12-23T22:48:47.766Z,10.43
2022-12-23T22:51:38.052Z,10.38
2022-12-23T22:54:28.695Z,10.39
2022-12-23T22:57:18.049Z,10.30
2022-12-23T23:00:12.644Z,10.33
2022-12-23T23:03:02.159Z,10.33
2022-12-23T23:06:00.024Z,10.23
2022-12-23T23:08:49.539Z,10.15
2022-12-23T23:11:41.343Z,10.04
2022-12-23T23:14:50.982Z,10.02
2022-12-23T23:17:40.446Z,9.97
2022-12-23T23:20:29.867Z,9.85
2022-12-23T23:23:19.349Z,9.78
2022-12-23T23:26:10.406Z,9.77
2022-12-23T23:29:01.035Z,9.81
2022-12-23T23:31:50.432Z,9.74
2022-12-23T23:34:40.713Z,9.72
2022-12-23T23:37:30.038Z,9.66
2022-12-23T23:40:19.791Z,9.58
2022-12-23T23:43:09.426Z,9.56
2022-12-23T23:46:00.258Z,9.47
2022-12-23T23:48:49.663Z,9.52
2022-12-23T23:51:39.839Z,9.44
2022-12-23T23:54:29.222Z,9.44
2022-12-23T23:57:18.509Z,9.50
